Terminal Aerodrome Forecast
Issued by NWS

Home | Current Version | Previous Version | Text Only | Print | Product List | Glossary On
Versions: 1 2 3 4 5 6 7 8 9 10 11 12 13 14 15 16 17 18 19 20
000
FTUS43 KMQT 191100 AAA
TAFCMX
TAF AMD
KCMX 191156Z 1912/2012 18010KT P6SM BKN008
     FM191400 20015G22KT P6SM BKN100
     FM192100 20015G22KT P6SM VCSH BKN040
     FM200200 23010KT P6SM -SHRA BKN020
     FM200600 25008KT P6SM -SHRA OVC008=

USA.gov is the U.S. government's official web portal to all federal, state and local government web resources and services.